sensor_id;sensor_type;location;lat;lon;timestamp;P1;durP1;ratioP1;P2;durP2;ratioP2
13204;SDS011;6667;52.634;9.226;2023-02-28T00:02:24;6.97;;;4.03;;
13204;SDS011;6667;52.634;9.226;2023-02-28T00:04:51;8.33;;;4.20;;
13204;SDS011;6667;52.634;9.226;2023-02-28T00:07:27;10.70;;;4.43;;
13204;SDS011;6667;52.634;9.226;2023-02-28T00:09:53;6.23;;;4.10;;
13204;SDS011;6667;52.634;9.226;2023-02-28T00:12:20;5.53;;;3.67;;
13204;SDS011;6667;52.634;9.226;2023-02-28T00:14:47;5.50;;;3.50;;
13204;SDS011;6667;52.634;9.226;2023-02-28T00:17:14;7.30;;;3.97;;
13204;SDS011;6667;52.634;9.226;2023-02-28T00:19:42;7.50;;;3.70;;
13204;SDS011;6667;52.634;9.226;2023-02-28T00:22:09;5.57;;;3.13;;
13204;SDS011;6667;52.634;9.226;2023-02-28T00:24:37;9.27;;;3.30;;
13204;SDS011;6667;52.634;9.226;2023-02-28T00:27:04;5.13;;;3.17;;
13204;SDS011;6667;52.634;9.226;2023-02-28T00:29:31;4.90;;;3.50;;
13204;SDS011;6667;52.634;9.226;2023-02-28T00:31:57;4.73;;;2.80;;
13204;SDS011;6667;52.634;9.226;2023-02-28T00:34:24;5.93;;;2.43;;
13204;SDS011;6667;52.634;9.226;2023-02-28T00:36:50;2.10;;;1.60;;
13204;SDS011;6667;52.634;9.226;2023-02-28T00:39:17;2.57;;;1.97;;
13204;SDS011;6667;52.634;9.226;2023-02-28T00:41:45;4.00;;;2.30;;
13204;SDS011;6667;52.634;9.226;2023-02-28T00:44:12;2.17;;;1.83;;
13204;SDS011;6667;52.634;9.226;2023-02-28T00:46:38;2.63;;;1.80;;
13204;SDS011;6667;52.634;9.226;2023-02-28T00:49:05;3.20;;;1.93;;
13204;SDS011;6667;52.634;9.226;2023-02-28T00:51:32;4.73;;;1.83;;
13204;SDS011;6667;52.634;9.226;2023-02-28T00:53:58;4.73;;;1.93;;
13204;SDS011;6667;52.634;9.226;2023-02-28T00:56:25;1.97;;;1.53;;
13204;SDS011;6667;52.634;9.226;2023-02-28T00:58:53;2.97;;;2.17;;
13204;SDS011;6667;52.634;9.226;2023-02-28T01:01:20;3.13;;;1.63;;
13204;SDS011;6667;52.634;9.226;2023-02-28T01:03:46;4.00;;;2.03;;
13204;SDS011;6667;52.634;9.226;2023-02-28T01:06:13;1.73;;;1.63;;
13204;SDS011;6667;52.634;9.226;2023-02-28T01:08:39;4.07;;;1.80;;
13204;SDS011;6667;52.634;9.226;2023-02-28T01:11:07;3.00;;;1.80;;
13204;SDS011;6667;52.634;9.226;2023-02-28T01:13:34;4.03;;;1.70;;
13204;SDS011;6667;52.634;9.226;2023-02-28T01:16:02;2.10;;;1.53;;
13204;SDS011;6667;52.634;9.226;2023-02-28T01:18:29;2.50;;;1.33;;
13204;SDS011;6667;52.634;9.226;2023-02-28T01:20:56;2.27;;;1.80;;
13204;SDS011;6667;52.634;9.226;2023-02-28T01:23:23;2.63;;;1.93;;
13204;SDS011;6667;52.634;9.226;2023-02-28T01:25:50;2.00;;;1.70;;
13204;SDS011;6667;52.634;9.226;2023-02-28T01:28:16;2.33;;;1.70;;
13204;SDS011;6667;52.634;9.226;2023-02-28T01:30:46;2.93;;;1.90;;
13204;SDS011;6667;52.634;9.226;2023-02-28T01:33:15;4.23;;;1.93;;
13204;SDS011;6667;52.634;9.226;2023-02-28T01:35:41;2.53;;;1.70;;
13204;SDS011;6667;52.634;9.226;2023-02-28T01:38:08;2.67;;;1.60;;
13204;SDS011;6667;52.634;9.226;2023-02-28T01:40:35;3.97;;;1.77;;
13204;SDS011;6667;52.634;9.226;2023-02-28T01:43:01;4.97;;;2.33;;
13204;SDS011;6667;52.634;9.226;2023-02-28T01:45:29;4.07;;;2.03;;
13204;SDS011;6667;52.634;9.226;2023-02-28T01:47:57;3.33;;;2.27;;
13204;SDS011;6667;52.634;9.226;2023-02-28T01:50:29;2.63;;;2.00;;
13204;SDS011;6667;52.634;9.226;2023-02-28T01:52:59;5.33;;;2.20;;
13204;SDS011;6667;52.634;9.226;2023-02-28T01:55:30;4.10;;;2.63;;
13204;SDS011;6667;52.634;9.226;2023-02-28T01:57:59;3.67;;;2.40;;
13204;SDS011;6667;52.634;9.226;2023-02-28T02:00:29;2.97;;;2.00;;
13204;SDS011;6667;52.634;9.226;2023-02-28T02:02:57;2.93;;;1.90;;
13204;SDS011;6667;52.634;9.226;2023-02-28T02:05:26;2.63;;;2.10;;
13204;SDS011;6667;52.634;9.226;2023-02-28T02:07:56;2.13;;;1.53;;
13204;SDS011;6667;52.634;9.226;2023-02-28T02:10:27;3.27;;;1.87;;
13204;SDS011;6667;52.634;9.226;2023-02-28T02:13:14;3.70;;;1.97;;
13204;SDS011;6667;52.634;9.226;2023-02-28T02:15:54;3.60;;;2.10;;
13204;SDS011;6667;52.634;9.226;2023-02-28T02:18:30;5.37;;;2.10;;
13204;SDS011;6667;52.634;9.226;2023-02-28T02:27:07;4.13;;;2.50;;
13204;SDS011;6667;52.634;9.226;2023-02-28T02:30:02;3.70;;;2.80;;
13204;SDS011;6667;52.634;9.226;2023-02-28T02:35:27;2.93;;;2.63;;
13204;SDS011;6667;52.634;9.226;2023-02-28T02:37:57;3.07;;;2.70;;
13204;SDS011;6667;52.634;9.226;2023-02-28T02:40:30;3.20;;;2.77;;
13204;SDS011;6667;52.634;9.226;2023-02-28T02:43:02;4.70;;;3.20;;
13204;SDS011;6667;52.634;9.226;2023-02-28T02:45:34;8.50;;;2.90;;
13204;SDS011;6667;52.634;9.226;2023-02-28T02:48:08;4.43;;;2.80;;
13204;SDS011;6667;52.634;9.226;2023-02-28T02:50:41;4.63;;;2.83;;
13204;SDS011;6667;52.634;9.226;2023-02-28T02:53:11;5.03;;;2.63;;
13204;SDS011;6667;52.634;9.226;2023-02-28T02:55:43;2.33;;;2.10;;
13204;SDS011;6667;52.634;9.226;2023-02-28T02:58:13;3.20;;;2.50;;
13204;SDS011;6667;52.634;9.226;2023-02-28T03:00:43;3.73;;;2.50;;
13204;SDS011;6667;52.634;9.226;2023-02-28T03:03:13;3.23;;;2.23;;
13204;SDS011;6667;52.634;9.226;2023-02-28T03:05:44;4.77;;;2.20;;
13204;SDS011;6667;52.634;9.226;2023-02-28T03:08:13;4.30;;;2.37;;
13204;SDS011;6667;52.634;9.226;2023-02-28T03:10:41;3.90;;;2.90;;
13204;SDS011;6667;52.634;9.226;2023-02-28T03:13:15;3.47;;;2.40;;
13204;SDS011;6667;52.634;9.226;2023-02-28T03:16:11;4.40;;;2.40;;
13204;SDS011;6667;52.634;9.226;2023-02-28T03:18:57;2.60;;;2.40;;
13204;SDS011;6667;52.634;9.226;2023-02-28T03:21:35;4.00;;;2.37;;
13204;SDS011;6667;52.634;9.226;2023-02-28T03:24:08;4.57;;;3.00;;
13204;SDS011;6667;52.634;9.226;2023-02-28T03:26:39;2.30;;;2.10;;
13204;SDS011;6667;52.634;9.226;2023-02-28T03:29:11;3.67;;;2.20;;
13204;SDS011;6667;52.634;9.226;2023-02-28T03:31:45;3.00;;;2.40;;
13204;SDS011;6667;52.634;9.226;2023-02-28T03:34:16;3.10;;;2.30;;
13204;SDS011;6667;52.634;9.226;2023-02-28T03:36:50;3.67;;;2.60;;
13204;SDS011;6667;52.634;9.226;2023-02-28T03:39:20;2.50;;;2.30;;
13204;SDS011;6667;52.634;9.226;2023-02-28T03:41:51;4.97;;;2.77;;
13204;SDS011;6667;52.634;9.226;2023-02-28T03:44:23;6.00;;;2.20;;
13204;SDS011;6667;52.634;9.226;2023-02-28T03:46:56;4.07;;;2.43;;
13204;SDS011;6667;52.634;9.226;2023-02-28T03:49:27;2.80;;;2.50;;
13204;SDS011;6667;52.634;9.226;2023-02-28T03:51:58;3.47;;;2.60;;
13204;SDS011;6667;52.634;9.226;2023-02-28T03:54:28;2.57;;;2.00;;
13204;SDS011;6667;52.634;9.226;2023-02-28T03:56:59;3.27;;;2.20;;
13204;SDS011;6667;52.634;9.226;2023-02-28T03:59:32;2.77;;;2.40;;
13204;SDS011;6667;52.634;9.226;2023-02-28T04:02:03;3.63;;;2.27;;
13204;SDS011;6667;52.634;9.226;2023-02-28T04:04:30;4.03;;;2.23;;
13204;SDS011;6667;52.634;9.226;2023-02-28T04:07:02;3.63;;;2.47;;
13204;SDS011;6667;52.634;9.226;2023-02-28T04:09:30;3.17;;;2.23;;
13204;SDS011;6667;52.634;9.226;2023-02-28T04:11:57;3.73;;;2.10;;
13204;SDS011;6667;52.634;9.226;2023-02-28T04:14:24;4.83;;;2.10;;
13204;SDS011;6667;52.634;9.226;2023-02-28T04:16:51;2.83;;;2.33;;
13204;SDS011;6667;52.634;9.226;2023-02-28T04:19:18;3.60;;;2.20;;
13204;SDS011;6667;52.634;9.226;2023-02-28T04:21:45;3.93;;;2.10;;
13204;SDS011;6667;52.634;9.226;2023-02-28T04:24:16;2.87;;;2.30;;
13204;SDS011;6667;52.634;9.226;2023-02-28T04:26:44;3.20;;;2.13;;
13204;SDS011;6667;52.634;9.226;2023-02-28T04:29:12;2.43;;;2.10;;
13204;SDS011;6667;52.634;9.226;2023-02-28T04:31:40;3.57;;;2.30;;
13204;SDS011;6667;52.634;9.226;2023-02-28T04:34:07;3.17;;;2.23;;
13204;SDS011;6667;52.634;9.226;2023-02-28T04:36:33;7.07;;;2.90;;
13204;SDS011;6667;52.634;9.226;2023-02-28T04:39:00;3.73;;;2.67;;
13204;SDS011;6667;52.634;9.226;2023-02-28T04:41:30;5.43;;;2.63;;
13204;SDS011;6667;52.634;9.226;2023-02-28T04:43:56;2.30;;;2.10;;
13204;SDS011;6667;52.634;9.226;2023-02-28T04:46:23;6.83;;;2.27;;
13204;SDS011;6667;52.634;9.226;2023-02-28T04:48:50;5.30;;;3.00;;
13204;SDS011;6667;52.634;9.226;2023-02-28T04:51:17;3.57;;;2.43;;
13204;SDS011;6667;52.634;9.226;2023-02-28T04:53:44;3.80;;;2.80;;
13204;SDS011;6667;52.634;9.226;2023-02-28T04:56:11;3.37;;;2.57;;
13204;SDS011;6667;52.634;9.226;2023-02-28T04:58:40;2.73;;;2.10;;
13204;SDS011;6667;52.634;9.226;2023-02-28T05:01:14;5.30;;;2.30;;
13204;SDS011;6667;52.634;9.226;2023-02-28T05:03:44;4.20;;;2.80;;
13204;SDS011;6667;52.634;9.226;2023-02-28T05:06:11;3.57;;;2.40;;
13204;SDS011;6667;52.634;9.226;2023-02-28T05:08:38;4.17;;;2.67;;
13204;SDS011;6667;52.634;9.226;2023-02-28T05:11:06;5.30;;;2.60;;
13204;SDS011;6667;52.634;9.226;2023-02-28T05:13:38;2.73;;;1.93;;
13204;SDS011;6667;52.634;9.226;2023-02-28T05:16:06;4.17;;;2.40;;
13204;SDS011;6667;52.634;9.226;2023-02-28T05:18:33;2.17;;;1.90;;
13204;SDS011;6667;52.634;9.226;2023-02-28T05:21:00;3.17;;;2.33;;
13204;SDS011;6667;52.634;9.226;2023-02-28T05:23:27;3.27;;;2.63;;
13204;SDS011;6667;52.634;9.226;2023-02-28T05:25:54;2.53;;;1.97;;
13204;SDS011;6667;52.634;9.226;2023-02-28T05:28:20;2.70;;;2.13;;
13204;SDS011;6667;52.634;9.226;2023-02-28T05:30:48;4.47;;;2.57;;
13204;SDS011;6667;52.634;9.226;2023-02-28T05:33:15;2.83;;;2.07;;
13204;SDS011;6667;52.634;9.226;2023-02-28T05:35:42;2.73;;;2.17;;
13204;SDS011;6667;52.634;9.226;2023-02-28T05:38:08;7.03;;;3.20;;
13204;SDS011;6667;52.634;9.226;2023-02-28T05:40:37;5.00;;;2.40;;
13204;SDS011;6667;52.634;9.226;2023-02-28T05:43:04;2.80;;;2.33;;
13204;SDS011;6667;52.634;9.226;2023-02-28T05:45:31;6.67;;;4.53;;
13204;SDS011;6667;52.634;9.226;2023-02-28T05:47:59;7.00;;;4.97;;
13204;SDS011;6667;52.634;9.226;2023-02-28T05:50:26;9.43;;;5.57;;
13204;SDS011;6667;52.634;9.226;2023-02-28T05:52:52;10.13;;;5.60;;
13204;SDS011;6667;52.634;9.226;2023-02-28T05:55:19;7.97;;;4.80;;
13204;SDS011;6667;52.634;9.226;2023-02-28T05:57:46;6.87;;;4.80;;
13204;SDS011;6667;52.634;9.226;2023-02-28T06:00:13;6.00;;;4.50;;
13204;SDS011;6667;52.634;9.226;2023-02-28T06:02:42;8.40;;;4.07;;
13204;SDS011;6667;52.634;9.226;2023-02-28T06:05:12;4.33;;;3.23;;
13204;SDS011;6667;52.634;9.226;2023-02-28T06:07:40;5.73;;;2.90;;
13204;SDS011;6667;52.634;9.226;2023-02-28T06:10:07;5.37;;;2.57;;
13204;SDS011;6667;52.634;9.226;2023-02-28T06:12:34;4.77;;;2.57;;
13204;SDS011;6667;52.634;9.226;2023-02-28T06:15:01;4.23;;;2.90;;
13204;SDS011;6667;52.634;9.226;2023-02-28T06:17:28;4.53;;;3.13;;
13204;SDS011;6667;52.634;9.226;2023-02-28T06:19:54;6.43;;;3.00;;
13204;SDS011;6667;52.634;9.226;2023-02-28T06:22:22;3.70;;;2.93;;
13204;SDS011;6667;52.634;9.226;2023-02-28T06:24:49;3.83;;;2.77;;
13204;SDS011;6667;52.634;9.226;2023-02-28T06:27:17;3.57;;;2.20;;
13204;SDS011;6667;52.634;9.226;2023-02-28T06:29:45;5.23;;;3.00;;
13204;SDS011;6667;52.634;9.226;2023-02-28T06:32:12;2.83;;;2.53;;
13204;SDS011;6667;52.634;9.226;2023-02-28T06:34:38;4.63;;;3.40;;
13204;SDS011;6667;52.634;9.226;2023-02-28T06:37:05;5.53;;;3.80;;
13204;SDS011;6667;52.634;9.226;2023-02-28T06:39:33;7.17;;;4.10;;
13204;SDS011;6667;52.634;9.226;2023-02-28T06:42:00;8.60;;;3.53;;
13204;SDS011;6667;52.634;9.226;2023-02-28T06:44:26;4.47;;;3.30;;
13204;SDS011;6667;52.634;9.226;2023-02-28T06:47:00;4.87;;;3.33;;
13204;SDS011;6667;52.634;9.226;2023-02-28T06:49:28;7.43;;;3.63;;
13204;SDS011;6667;52.634;9.226;2023-02-28T06:51:55;6.83;;;3.73;;
13204;SDS011;6667;52.634;9.226;2023-02-28T06:54:21;8.47;;;4.00;;
13204;SDS011;6667;52.634;9.226;2023-02-28T06:56:49;8.07;;;3.90;;
13204;SDS011;6667;52.634;9.226;2023-02-28T06:59:16;4.00;;;3.03;;
13204;SDS011;6667;52.634;9.226;2023-02-28T07:01:43;6.57;;;3.37;;
13204;SDS011;6667;52.634;9.226;2023-02-28T07:04:10;4.23;;;3.57;;
13204;SDS011;6667;52.634;9.226;2023-02-28T07:06:38;5.33;;;3.77;;
13204;SDS011;6667;52.634;9.226;2023-02-28T07:09:05;6.83;;;3.70;;
13204;SDS011;6667;52.634;9.226;2023-02-28T07:11:32;7.73;;;4.30;;
13204;SDS011;6667;52.634;9.226;2023-02-28T07:14:00;4.90;;;3.67;;
13204;SDS011;6667;52.634;9.226;2023-02-28T07:16:26;8.63;;;4.20;;
13204;SDS011;6667;52.634;9.226;2023-02-28T07:18:53;6.63;;;3.80;;
13204;SDS011;6667;52.634;9.226;2023-02-28T07:21:20;4.37;;;3.23;;
13204;SDS011;6667;52.634;9.226;2023-02-28T07:23:47;7.37;;;4.33;;
13204;SDS011;6667;52.634;9.226;2023-02-28T07:26:15;6.13;;;4.20;;
13204;SDS011;6667;52.634;9.226;2023-02-28T07:28:43;7.03;;;3.80;;
13204;SDS011;6667;52.634;9.226;2023-02-28T07:31:13;5.80;;;3.70;;
13204;SDS011;6667;52.634;9.226;2023-02-28T07:33:40;4.80;;;3.50;;
13204;SDS011;6667;52.634;9.226;2023-02-28T07:36:08;6.33;;;3.50;;
13204;SDS011;6667;52.634;9.226;2023-02-28T07:38:39;6.70;;;4.07;;
13204;SDS011;6667;52.634;9.226;2023-02-28T07:41:05;5.30;;;3.67;;
13204;SDS011;6667;52.634;9.226;2023-02-28T07:43:33;7.83;;;4.13;;
13204;SDS011;6667;52.634;9.226;2023-02-28T07:46:01;5.57;;;4.20;;
13204;SDS011;6667;52.634;9.226;2023-02-28T07:48:30;7.07;;;4.43;;
13204;SDS011;6667;52.634;9.226;2023-02-28T07:50:56;8.33;;;3.87;;
13204;SDS011;6667;52.634;9.226;2023-02-28T07:53:23;7.80;;;4.10;;
13204;SDS011;6667;52.634;9.226;2023-02-28T07:55:50;4.33;;;3.80;;
13204;SDS011;6667;52.634;9.226;2023-02-28T07:58:20;6.87;;;4.27;;
13204;SDS011;6667;52.634;9.226;2023-02-28T08:00:46;7.93;;;4.37;;
13204;SDS011;6667;52.634;9.226;2023-02-28T08:03:13;5.43;;;4.00;;
13204;SDS011;6667;52.634;9.226;2023-02-28T08:05:41;5.47;;;3.70;;
13204;SDS011;6667;52.634;9.226;2023-02-28T08:08:08;5.57;;;3.90;;
13204;SDS011;6667;52.634;9.226;2023-02-28T08:10:35;5.17;;;3.80;;
13204;SDS011;6667;52.634;9.226;2023-02-28T08:13:02;8.83;;;4.10;;
13204;SDS011;6667;52.634;9.226;2023-02-28T08:15:29;7.53;;;4.10;;
13204;SDS011;6667;52.634;9.226;2023-02-28T08:17:56;3.63;;;3.20;;
13204;SDS011;6667;52.634;9.226;2023-02-28T08:20:23;5.87;;;3.90;;
13204;SDS011;6667;52.634;9.226;2023-02-28T08:22:51;4.63;;;4.10;;
13204;SDS011;6667;52.634;9.226;2023-02-28T08:25:18;7.43;;;4.27;;
13204;SDS011;6667;52.634;9.226;2023-02-28T08:27:45;6.97;;;4.53;;
13204;SDS011;6667;52.634;9.226;2023-02-28T08:30:12;5.23;;;3.77;;
13204;SDS011;6667;52.634;9.226;2023-02-28T08:32:40;7.10;;;4.30;;
13204;SDS011;6667;52.634;9.226;2023-02-28T08:35:07;6.43;;;4.23;;
13204;SDS011;6667;52.634;9.226;2023-02-28T08:37:35;4.90;;;4.27;;
13204;SDS011;6667;52.634;9.226;2023-02-28T08:40:03;4.40;;;4.00;;
13204;SDS011;6667;52.634;9.226;2023-02-28T08:42:31;6.27;;;4.33;;
13204;SDS011;6667;52.634;9.226;2023-02-28T08:44:58;8.13;;;4.07;;
13204;SDS011;6667;52.634;9.226;2023-02-28T08:47:25;6.17;;;4.33;;
13204;SDS011;6667;52.634;9.226;2023-02-28T08:49:52;9.13;;;3.97;;
13204;SDS011;6667;52.634;9.226;2023-02-28T08:52:18;7.47;;;3.90;;
13204;SDS011;6667;52.634;9.226;2023-02-28T08:54:45;5.40;;;3.80;;
13204;SDS011;6667;52.634;9.226;2023-02-28T08:57:13;8.40;;;4.47;;
13204;SDS011;6667;52.634;9.226;2023-02-28T08:59:40;5.83;;;3.70;;
13204;SDS011;6667;52.634;9.226;2023-02-28T09:02:08;7.80;;;4.30;;
13204;SDS011;6667;52.634;9.226;2023-02-28T09:04:35;6.40;;;4.10;;
13204;SDS011;6667;52.634;9.226;2023-02-28T09:07:02;5.10;;;3.63;;
13204;SDS011;6667;52.634;9.226;2023-02-28T09:09:28;8.43;;;3.00;;
13204;SDS011;6667;52.634;9.226;2023-02-28T09:11:55;5.80;;;2.83;;
13204;SDS011;6667;52.634;9.226;2023-02-28T09:14:23;5.53;;;3.37;;
13204;SDS011;6667;52.634;9.226;2023-02-28T09:16:50;5.40;;;3.10;;
13204;SDS011;6667;52.634;9.226;2023-02-28T09:19:17;3.77;;;2.73;;
13204;SDS011;6667;52.634;9.226;2023-02-28T09:21:43;5.17;;;3.20;;
13204;SDS011;6667;52.634;9.226;2023-02-28T09:24:10;4.90;;;2.83;;
13204;SDS011;6667;52.634;9.226;2023-02-28T09:26:39;6.53;;;3.00;;
13204;SDS011;6667;52.634;9.226;2023-02-28T09:29:06;4.00;;;3.20;;
13204;SDS011;6667;52.634;9.226;2023-02-28T09:31:34;5.20;;;2.63;;
13204;SDS011;6667;52.634;9.226;2023-02-28T09:34:00;4.40;;;2.83;;
13204;SDS011;6667;52.634;9.226;2023-02-28T09:36:27;3.47;;;2.23;;
13204;SDS011;6667;52.634;9.226;2023-02-28T09:38:54;3.77;;;2.30;;
13204;SDS011;6667;52.634;9.226;2023-02-28T09:41:22;2.60;;;2.17;;
13204;SDS011;6667;52.634;9.226;2023-02-28T09:43:53;3.20;;;2.40;;
13204;SDS011;6667;52.634;9.226;2023-02-28T09:46:27;3.40;;;2.40;;
13204;SDS011;6667;52.634;9.226;2023-02-28T09:48:59;4.40;;;1.90;;
13204;SDS011;6667;52.634;9.226;2023-02-28T09:51:37;3.57;;;1.83;;
13204;SDS011;6667;52.634;9.226;2023-02-28T09:54:12;3.07;;;1.47;;
13204;SDS011;6667;52.634;9.226;2023-02-28T09:56:43;1.73;;;1.50;;
13204;SDS011;6667;52.634;9.226;2023-02-28T09:59:13;2.83;;;1.67;;
13204;SDS011;6667;52.634;9.226;2023-02-28T10:01:48;1.43;;;1.27;;
13204;SDS011;6667;52.634;9.226;2023-02-28T10:04:32;2.00;;;1.60;;
13204;SDS011;6667;52.634;9.226;2023-02-28T10:07:11;1.63;;;1.50;;
13204;SDS011;6667;52.634;9.226;2023-02-28T10:09:48;1.30;;;1.20;;
13204;SDS011;6667;52.634;9.226;2023-02-28T10:12:19;2.70;;;1.33;;
13204;SDS011;6667;52.634;9.226;2023-02-28T10:14:47;2.00;;;1.63;;
13204;SDS011;6667;52.634;9.226;2023-02-28T10:17:17;2.73;;;1.40;;
13204;SDS011;6667;52.634;9.226;2023-02-28T10:19:50;1.00;;;0.70;;
13204;SDS011;6667;52.634;9.226;2023-02-28T10:22:26;1.40;;;0.90;;
13204;SDS011;6667;52.634;9.226;2023-02-28T10:24:59;1.33;;;0.90;;
13204;SDS011;6667;52.634;9.226;2023-02-28T10:27:28;0.90;;;0.90;;
13204;SDS011;6667;52.634;9.226;2023-02-28T10:29:57;1.37;;;0.90;;
13204;SDS011;6667;52.634;9.226;2023-02-28T10:32:25;1.20;;;0.90;;
13204;SDS011;6667;52.634;9.226;2023-02-28T10:34:56;1.70;;;0.93;;
13204;SDS011;6667;52.634;9.226;2023-02-28T10:37:25;1.90;;;0.90;;
13204;SDS011;6667;52.634;9.226;2023-02-28T10:39:52;1.10;;;1.00;;
13204;SDS011;6667;52.634;9.226;2023-02-28T10:42:20;1.20;;;1.00;;
13204;SDS011;6667;52.634;9.226;2023-02-28T10:45:09;0.80;;;0.80;;
13204;SDS011;6667;52.634;9.226;2023-02-28T10:47:40;0.67;;;0.67;;
13204;SDS011;6667;52.634;9.226;2023-02-28T10:53:28;1.90;;;1.00;;
13204;SDS011;6667;52.634;9.226;2023-02-28T10:55:58;1.23;;;0.87;;
13204;SDS011;6667;52.634;9.226;2023-02-28T10:58:28;0.80;;;0.73;;
13204;SDS011;6667;52.634;9.226;2023-02-28T11:00:56;1.80;;;0.80;;
13204;SDS011;6667;52.634;9.226;2023-02-28T11:03:25;1.43;;;0.90;;
13204;SDS011;6667;52.634;9.226;2023-02-28T11:05:58;0.97;;;0.80;;
13204;SDS011;6667;52.634;9.226;2023-02-28T11:08:31;1.20;;;1.17;;
13204;SDS011;6667;52.634;9.226;2023-02-28T11:10:58;1.17;;;0.90;;
13204;SDS011;6667;52.634;9.226;2023-02-28T11:13:30;0.90;;;0.80;;
13204;SDS011;6667;52.634;9.226;2023-02-28T11:15:59;1.00;;;0.80;;
13204;SDS011;6667;52.634;9.226;2023-02-28T11:18:29;2.20;;;1.10;;
13204;SDS011;6667;52.634;9.226;2023-02-28T11:21:01;3.27;;;0.83;;
13204;SDS011;6667;52.634;9.226;2023-02-28T11:23:29;1.50;;;0.93;;
13204;SDS011;6667;52.634;9.226;2023-02-28T11:25:59;1.27;;;0.90;;
13204;SDS011;6667;52.634;9.226;2023-02-28T11:28:30;2.20;;;1.07;;
13204;SDS011;6667;52.634;9.226;2023-02-28T11:31:03;1.43;;;1.03;;
13204;SDS011;6667;52.634;9.226;2023-02-28T11:33:47;2.50;;;1.20;;
13204;SDS011;6667;52.634;9.226;2023-02-28T11:36:18;3.90;;;1.10;;
13204;SDS011;6667;52.634;9.226;2023-02-28T11:38:47;3.30;;;0.87;;
13204;SDS011;6667;52.634;9.226;2023-02-28T11:41:21;4.13;;;1.10;;
13204;SDS011;6667;52.634;9.226;2023-02-28T11:44:15;2.07;;;1.00;;
13204;SDS011;6667;52.634;9.226;2023-02-28T11:46:58;1.30;;;1.10;;
13204;SDS011;6667;52.634;9.226;2023-02-28T11:49:32;1.90;;;1.43;;
13204;SDS011;6667;52.634;9.226;2023-02-28T11:52:10;1.90;;;1.07;;
13204;SDS011;6667;52.634;9.226;2023-02-28T11:54:50;3.33;;;1.23;;
13204;SDS011;6667;52.634;9.226;2023-02-28T11:57:32;2.60;;;1.20;;
13204;SDS011;6667;52.634;9.226;2023-02-28T12:00:06;1.67;;;0.97;;
13204;SDS011;6667;52.634;9.226;2023-02-28T12:02:46;1.60;;;0.93;;
13204;SDS011;6667;52.634;9.226;2023-02-28T12:05:27;1.60;;;1.27;;
13204;SDS011;6667;52.634;9.226;2023-02-28T12:08:02;1.00;;;1.00;;
13204;SDS011;6667;52.634;9.226;2023-02-28T12:10:51;3.10;;;0.97;;
13204;SDS011;6667;52.634;9.226;2023-02-28T12:13:28;1.47;;;0.90;;
13204;SDS011;6667;52.634;9.226;2023-02-28T12:16:16;1.67;;;1.13;;
13204;SDS011;6667;52.634;9.226;2023-02-28T12:18:56;1.10;;;0.97;;
13204;SDS011;6667;52.634;9.226;2023-02-28T12:21:36;1.13;;;0.87;;
13204;SDS011;6667;52.634;9.226;2023-02-28T12:24:30;1.90;;;1.10;;
13204;SDS011;6667;52.634;9.226;2023-02-28T12:27:11;1.43;;;1.10;;
13204;SDS011;6667;52.634;9.226;2023-02-28T12:29:43;1.10;;;1.00;;
13204;SDS011;6667;52.634;9.226;2023-02-28T12:32:16;5.73;;;1.50;;
13204;SDS011;6667;52.634;9.226;2023-02-28T12:34:47;1.70;;;1.23;;
13204;SDS011;6667;52.634;9.226;2023-02-28T12:37:19;4.70;;;1.30;;
13204;SDS011;6667;52.634;9.226;2023-02-28T12:39:54;2.03;;;1.20;;
13204;SDS011;6667;52.634;9.226;2023-02-28T12:42:26;1.60;;;1.27;;
13204;SDS011;6667;52.634;9.226;2023-02-28T12:44:56;1.63;;;1.30;;
13204;SDS011;6667;52.634;9.226;2023-02-28T12:47:27;1.53;;;1.43;;
13204;SDS011;6667;52.634;9.226;2023-02-28T12:49:54;1.97;;;0.93;;
13204;SDS011;6667;52.634;9.226;2023-02-28T12:52:25;1.40;;;1.00;;
13204;SDS011;6667;52.634;9.226;2023-02-28T12:55:03;1.53;;;0.90;;
13204;SDS011;6667;52.634;9.226;2023-02-28T12:57:36;0.90;;;0.80;;
13204;SDS011;6667;52.634;9.226;2023-02-28T13:00:10;2.07;;;1.33;;
13204;SDS011;6667;52.634;9.226;2023-02-28T13:02:47;1.33;;;1.00;;
13204;SDS011;6667;52.634;9.226;2023-02-28T13:05:41;1.03;;;0.90;;
13204;SDS011;6667;52.634;9.226;2023-02-28T13:08:24;0.90;;;0.80;;
13204;SDS011;6667;52.634;9.226;2023-02-28T13:11:06;1.67;;;0.90;;
13204;SDS011;6667;52.634;9.226;2023-02-28T13:13:33;1.17;;;0.87;;
13204;SDS011;6667;52.634;9.226;2023-02-28T13:16:02;1.60;;;1.00;;
13204;SDS011;6667;52.634;9.226;2023-02-28T13:18:32;0.93;;;0.80;;
13204;SDS011;6667;52.634;9.226;2023-02-28T13:21:02;1.13;;;1.00;;
13204;SDS011;6667;52.634;9.226;2023-02-28T13:23:38;1.23;;;0.90;;
13204;SDS011;6667;52.634;9.226;2023-02-28T13:29:29;4.77;;;1.00;;
13204;SDS011;6667;52.634;9.226;2023-02-28T13:38:17;1.07;;;0.80;;
13204;SDS011;6667;52.634;9.226;2023-02-28T13:40:49;1.33;;;0.90;;
13204;SDS011;6667;52.634;9.226;2023-02-28T13:43:16;0.90;;;0.90;;
13204;SDS011;6667;52.634;9.226;2023-02-28T13:48:35;1.10;;;0.87;;
13204;SDS011;6667;52.634;9.226;2023-02-28T13:54:13;0.97;;;0.77;;
13204;SDS011;6667;52.634;9.226;2023-02-28T13:56:48;1.40;;;0.80;;
13204;SDS011;6667;52.634;9.226;2023-02-28T13:59:25;1.10;;;0.90;;
13204;SDS011;6667;52.634;9.226;2023-02-28T14:02:03;1.93;;;0.80;;
13204;SDS011;6667;52.634;9.226;2023-02-28T14:04:54;1.23;;;1.10;;
13204;SDS011;6667;52.634;9.226;2023-02-28T14:07:27;1.20;;;0.83;;
13204;SDS011;6667;52.634;9.226;2023-02-28T14:09:58;1.50;;;1.00;;
13204;SDS011;6667;52.634;9.226;2023-02-28T14:15:28;0.97;;;0.90;;
13204;SDS011;6667;52.634;9.226;2023-02-28T14:18:11;1.00;;;0.90;;
13204;SDS011;6667;52.634;9.226;2023-02-28T14:20:43;0.80;;;0.80;;
13204;SDS011;6667;52.634;9.226;2023-02-28T14:23:13;0.97;;;0.87;;
13204;SDS011;6667;52.634;9.226;2023-02-28T14:25:51;1.80;;;1.00;;
13204;SDS011;6667;52.634;9.226;2023-02-28T14:28:41;1.30;;;1.10;;
13204;SDS011;6667;52.634;9.226;2023-02-28T14:31:17;1.07;;;1.00;;
13204;SDS011;6667;52.634;9.226;2023-02-28T14:33:57;1.60;;;0.97;;
13204;SDS011;6667;52.634;9.226;2023-02-28T14:36:36;2.17;;;0.90;;
13204;SDS011;6667;52.634;9.226;2023-02-28T14:39:06;1.33;;;1.00;;
13204;SDS011;6667;52.634;9.226;2023-02-28T14:41:34;0.97;;;0.90;;
13204;SDS011;6667;52.634;9.226;2023-02-28T14:44:13;0.90;;;0.83;;
13204;SDS011;6667;52.634;9.226;2023-02-28T14:46:41;0.73;;;0.70;;
13204;SDS011;6667;52.634;9.226;2023-02-28T14:49:13;0.80;;;0.80;;
13204;SDS011;6667;52.634;9.226;2023-02-28T14:51:43;0.77;;;0.77;;
13204;SDS011;6667;52.634;9.226;2023-02-28T14:54:13;1.20;;;1.03;;
13204;SDS011;6667;52.634;9.226;2023-02-28T14:56:42;1.90;;;1.10;;
13204;SDS011;6667;52.634;9.226;2023-02-28T14:59:22;1.13;;;0.90;;
13204;SDS011;6667;52.634;9.226;2023-02-28T15:01:51;1.40;;;1.00;;
13204;SDS011;6667;52.634;9.226;2023-02-28T15:04:21;1.17;;;0.80;;
13204;SDS011;6667;52.634;9.226;2023-02-28T15:07:07;0.80;;;0.70;;
13204;SDS011;6667;52.634;9.226;2023-02-28T15:09:34;0.93;;;0.83;;
13204;SDS011;6667;52.634;9.226;2023-02-28T15:12:00;1.30;;;0.80;;
13204;SDS011;6667;52.634;9.226;2023-02-28T15:14:28;1.53;;;0.80;;
13204;SDS011;6667;52.634;9.226;2023-02-28T15:16:55;1.20;;;1.10;;
13204;SDS011;6667;52.634;9.226;2023-02-28T15:19:29;1.13;;;0.90;;
13204;SDS011;6667;52.634;9.226;2023-02-28T15:21:59;0.63;;;0.63;;
13204;SDS011;6667;52.634;9.226;2023-02-28T15:24:34;1.20;;;0.90;;
13204;SDS011;6667;52.634;9.226;2023-02-28T15:27:03;0.73;;;0.70;;
13204;SDS011;6667;52.634;9.226;2023-02-28T15:29:34;2.37;;;2.10;;
13204;SDS011;6667;52.634;9.226;2023-02-28T15:32:18;2.50;;;1.73;;
13204;SDS011;6667;52.634;9.226;2023-02-28T15:34:51;1.93;;;1.70;;
13204;SDS011;6667;52.634;9.226;2023-02-28T15:37:26;4.10;;;1.17;;
13204;SDS011;6667;52.634;9.226;2023-02-28T15:39:56;1.50;;;0.93;;
13204;SDS011;6667;52.634;9.226;2023-02-28T15:42:27;1.47;;;1.37;;
13204;SDS011;6667;52.634;9.226;2023-02-28T15:44:56;3.37;;;1.40;;
13204;SDS011;6667;52.634;9.226;2023-02-28T15:47:25;2.40;;;1.53;;
13204;SDS011;6667;52.634;9.226;2023-02-28T15:49:56;2.00;;;0.80;;
13204;SDS011;6667;52.634;9.226;2023-02-28T15:52:26;2.13;;;1.00;;